Strona główna
METAR-TAF:

METAR-TAF

Lotnisko :

Port lotniczy Nawakszut

Nawakszut, Mauretania

Szerokość geograficzna: 18-18-36N, Długość geograficzna: 015-58-11W, wysokość: 3 m

Aktualna obserwacja pogody

Raport powstał 24 minut temu, godzina 06:30 UTC
Wiatr 6 kt od północny wschód
Temperatura 12°C
Wilgotność 30%
Ciśnienie 1017 hPa
Widzialność: 8000 m

METAR: GQNO 100630Z 05006KT 8000 NSC 12/M05 Q1017 NOSIG

czas: 06:54 (06:54 UTC)

Prognoza

Raport powstał 1 godzina i 54 minut temu, godzina 05:00 UTC
Prognoza ważna od 10 godzina 06 UTC do 11 godzina 12 UTC
Wiatr 6 kt od wschodnio-północny wschód
Widzialność: 7000 m
Stopniowe zmiany
od 10 godzina 07 UTC do 10 godzina 10 UTC
Wiatr 16 kt od wschód

TAF: GQNO 100500Z 1006/1112 06006KT 7000 NSC BECMG 1007/1010 09016KT

Obserwacja i prognoza pogody dla ponad 4000 lotnisk (raport METAR i TAF).

Dostępne stacje oznaczono żółtymi i czerwonymi punktami na mapie.

Najedź kursorem aby zobaczyć nazwę stacji.

Kliknij aby zobaczyć obserwacje i prognozy pogody.

Aby zmienić mapę: kliknij na zielony przycisk z czarnym krzyżykiem, aby powiększyć; na zielony przycisk z myślnikiem, aby pomniejszyć; na zielone strzałki, aby przejść do map sąsiednich.


METAR-TAF: